Time;durP1;ratioP1;P1;durP2;ratioP2;P2;SDS_P1;SDS_P2;PMS_P1;PMS_P2;Temp;Humidity;BMP_temperature;BMP_pressure;BME280_temperature;BME280_humidity;BME280_pressure;Samples;Min_cycle;Max_cycle;Signal;HPM_P1;HPM_P2
2023/09/14 05:09:20;;;;;;;33.97;23.33;;;;;;;22.22;100.00;100899.34;4873270;29;20048;-84
2023/09/14 05:11:48;;;;;;;38.33;21.83;;;;;;;22.33;100.00;100902.44;4863968;29;20048;-83
2023/09/14 05:14:16;;;;;;;36.33;22.27;;;;;;;22.22;100.00;100904.09;4878717;29;20049;-83
2023/09/14 05:16:44;;;;;;;31.67;20.70;;;;;;;22.25;100.00;100912.56;4879091;29;20052;-83
2023/09/14 05:19:12;;;;;;;27.58;18.20;;;;;;;22.26;100.00;100914.19;4864585;29;20064;-83
2023/09/14 05:21:40;;;;;;;23.98;15.60;;;;;;;22.18;100.00;100923.50;4864780;29;20057;-83
2023/09/14 05:24:08;;;;;;;22.98;15.73;;;;;;;22.17;100.00;100927.44;4861570;29;20076;-83
2023/09/14 05:26:35;;;;;;;22.23;15.35;;;;;;;22.17;100.00;100918.25;4851188;29;20072;-83
2023/09/14 05:29:03;;;;;;;28.40;16.70;;;;;;;22.32;100.00;100922.28;4877306;29;20045;-84
2023/09/14 05:31:31;;;;;;;24.27;16.17;;;;;;;22.14;100.00;100917.00;4879488;29;20060;-83
2023/09/14 05:33:59;;;;;;;26.27;16.92;;;;;;;22.10;100.00;100930.81;4878833;29;20052;-83
2023/09/14 05:36:27;;;;;;;25.35;16.08;;;;;;;22.22;100.00;100918.03;4878805;29;20052;-83
2023/09/14 05:38:55;;;;;;;28.27;16.85;;;;;;;22.10;100.00;100921.66;4880614;29;20044;-83
2023/09/14 05:41:23;;;;;;;22.88;15.55;;;;;;;22.19;100.00;100935.47;4878920;29;20040;-83
2023/09/14 05:43:51;;;;;;;25.65;15.80;;;;;;;22.29;100.00;100938.56;4879471;29;20816;-83
2023/09/14 05:46:20;;;;;;;26.90;17.05;;;;;;;22.35;100.00;100949.47;4879375;29;20064;-83
2023/09/14 05:48:48;;;;;;;26.50;18.13;;;;;;;22.58;100.00;100949.00;4878615;29;20049;-83
2023/09/14 05:51:16;;;;;;;29.83;17.67;;;;;;;22.71;100.00;100935.78;4880230;29;20061;-83
2023/09/14 05:53:44;;;;;;;24.67;15.10;;;;;;;22.91;100.00;100942.31;4878986;29;20045;-83
2023/09/14 05:56:13;;;;;;;22.10;14.30;;;;;;;22.91;99.46;100954.31;4880016;29;20061;-84
2023/09/14 05:58:40;;;;;;;24.52;14.35;;;;;;;22.78;99.74;100942.38;4862582;29;20505;-83
2023/09/14 06:01:36;;;;;;;19.95;12.95;;;;;;;22.91;99.27;100942.31;4870841;29;20376;-83
2023/09/14 06:04:04;;;;;;;23.30;13.68;;;;;;;22.87;98.74;100944.22;4878794;29;20064;-83
2023/09/14 06:06:33;;;;;;;22.08;14.10;;;;;;;22.88;98.52;100954.22;4878571;29;20049;-83
2023/09/14 06:09:01;;;;;;;21.98;14.13;;;;;;;22.90;99.33;100955.47;4888695;29;20059;-83
2023/09/14 06:11:29;;;;;;;22.08;14.20;;;;;;;22.94;99.66;100945.22;4884234;29;20052;-84
2023/09/14 06:13:58;;;;;;;21.95;13.88;;;;;;;22.91;100.00;100950.69;4884156;29;20041;-83
2023/09/14 06:16:26;;;;;;;22.63;13.50;;;;;;;22.94;98.83;100958.38;4888009;29;20052;-83
2023/09/14 06:18:55;;;;;;;17.88;12.65;;;;;;;22.95;99.08;100948.81;4888051;29;20076;-83
2023/09/14 06:21:23;;;;;;;20.52;13.43;;;;;;;22.75;100.00;100957.06;4891421;29;20048;-83
2023/09/14 06:23:52;;;;;;;23.25;13.60;;;;;;;22.87;100.00;100963.75;4880388;29;20056;-83
2023/09/14 06:26:20;;;;;;;18.17;12.23;;;;;;;23.01;99.84;100961.34;4882957;29;20048;-83
2023/09/14 06:28:48;;;;;;;21.80;13.88;;;;;;;22.83;100.00;100960.88;4888704;29;20072;-82
2023/09/14 06:31:16;;;;;;;21.45;13.85;;;;;;;22.72;100.00;100971.69;4890622;29;20049;-83
2023/09/14 06:33:45;;;;;;;19.20;12.00;;;;;;;22.99;100.00;100972.06;4880174;29;20053;-83
2023/09/14 06:36:14;;;;;;;19.88;12.98;;;;;;;23.04;100.00;100973.78;4896893;29;20048;-83
2023/09/14 06:38:42;;;;;;;20.02;13.32;;;;;;;22.95;100.00;100973.94;4889020;29;20052;-83
2023/09/14 06:41:14;;;;;;;17.02;12.20;;;;;;;23.17;99.71;100968.97;4889988;29;20053;-82
2023/09/14 06:43:46;;;;;;;19.27;12.90;;;;;;;23.16;99.12;100976.50;4881760;29;20041;-83
2023/09/14 06:46:15;;;;;;;18.60;12.00;;;;;;;23.20;99.39;100983.00;4868405;29;20053;-83
2023/09/14 06:48:44;;;;;;;16.27;11.82;;;;;;;23.27;99.39;100993.53;4888534;29;20057;-83
2023/09/14 06:51:12;;;;;;;17.92;12.73;;;;;;;23.30;99.78;100987.25;4890324;29;20044;-83
2023/09/14 06:53:40;;;;;;;21.20;13.57;;;;;;;23.38;99.79;100987.47;4881894;29;20053;-83
2023/09/14 06:56:13;;;;;;;18.60;12.27;;;;;;;23.56;99.38;100993.53;4862287;29;20049;-83
2023/09/14 06:58:47;;;;;;;19.27;12.75;;;;;;;23.50;99.05;100990.19;4886345;29;20060;-83
2023/09/14 07:01:15;;;;;;;18.92;13.32;;;;;;;23.49;99.42;100994.16;4885265;29;20056;-83
2023/09/14 07:03:44;;;;;;;20.20;12.43;;;;;;;23.67;97.88;101007.78;4886219;29;20037;-83
2023/09/14 07:06:13;;;;;;;17.77;12.55;;;;;;;23.93;94.46;101012.00;4890042;29;20057;-83
2023/09/14 07:08:41;;;;;;;17.55;11.77;;;;;;;24.00;93.95;101012.19;4887868;29;20060;-83
2023/09/14 07:11:10;;;;;;;17.13;12.02;;;;;;;23.99;93.67;101016.13;4888380;29;20049;-83
2023/09/14 07:13:38;;;;;;;15.55;11.18;;;;;;;23.97;93.55;101018.50;4880142;29;20045;-83
2023/09/14 07:16:07;;;;;;;17.27;12.70;;;;;;;23.88;93.54;101022.28;4892055;29;20401;-83
2023/09/14 07:18:35;;;;;;;18.80;12.63;;;;;;;23.81;94.11;101026.88;4883013;29;20424;-82
2023/09/14 07:21:04;;;;;;;17.88;12.38;;;;;;;23.71;96.68;101019.88;4895915;29;20407;-83
2023/09/14 07:23:32;;;;;;;18.42;12.27;;;;;;;23.76;95.47;101019.59;4882274;29;20048;-78
2023/09/14 07:26:04;;;;;;;20.00;12.10;;;;;;;24.00;95.02;101029.75;4895042;29;20052;-78
2023/09/14 07:28:33;;;;;;;19.30;12.88;;;;;;;23.96;96.06;101030.84;4888900;29;20064;-79
2023/09/14 07:31:05;;;;;;;21.08;12.73;;;;;;;24.09;94.88;101040.78;4878032;29;20053;-83
2023/09/14 07:33:34;;;;;;;19.17;12.70;;;;;;;24.06;94.49;101033.09;4878054;29;20052;-82
2023/09/14 07:36:02;;;;;;;20.40;13.43;;;;;;;24.13;94.56;101043.66;4877945;29;20056;-83
2023/09/14 07:38:31;;;;;;;20.92;13.82;;;;;;;23.95;94.37;101044.00;4860755;29;20048;-82
2023/09/14 07:40:59;;;;;;;21.67;13.00;;;;;;;24.06;94.50;101043.47;4878044;29;20075;-82
2023/09/14 07:43:27;;;;;;;23.17;14.73;;;;;;;24.06;92.40;101049.88;4878161;29;20397;-82
2023/09/14 07:45:56;;;;;;;18.45;13.75;;;;;;;24.01;93.42;101052.94;4876996;29;20076;-83
2023/09/14 07:48:25;;;;;;;23.27;15.50;;;;;;;23.85;95.39;101062.13;4877184;29;20068;-82
2023/09/14 07:50:53;;;;;;;21.60;14.23;;;;;;;23.89;94.86;101051.84;4878283;29;20056;-82
2023/09/14 07:53:21;;;;;;;21.88;15.00;;;;;;;23.80;96.91;101061.59;4878556;29;20056;-82
2023/09/14 07:55:53;;;;;;;22.88;14.07;;;;;;;23.98;95.15;101070.41;4878403;29;20075;-82
2023/09/14 07:58:21;;;;;;;23.73;15.45;;;;;;;24.00;96.04;101076.47;4878378;29;20057;-82
2023/09/14 08:00:50;;;;;;;22.20;14.93;;;;;;;24.13;95.15;101072.44;4884431;29;20053;-82
2023/09/14 08:03:19;;;;;;;24.95;15.52;;;;;;;24.31;92.84;101071.25;4884622;29;20053;-82
2023/09/14 08:05:48;;;;;;;25.25;15.55;;;;;;;24.24;94.80;101077.50;4884576;29;20072;-82
2023/09/14 08:08:16;;;;;;;22.83;15.70;;;;;;;24.26;93.62;101083.53;4884463;29;20055;-82
2023/09/14 08:10:52;;;;;;;22.70;14.98;;;;;;;24.27;93.04;101083.16;4885080;29;20045;-82
2023/09/14 08:13:21;;;;;;;21.23;14.82;;;;;;;24.33;93.61;101083.69;4883568;29;20056;-82
2023/09/14 08:15:49;;;;;;;24.27;15.43;;;;;;;24.51;91.55;101080.50;4885196;29;20068;-83
2023/09/14 08:18:19;;;;;;;21.00;14.02;;;;;;;24.71;88.82;101084.16;4868326;29;20404;-83
2023/09/14 08:20:47;;;;;;;23.08;16.08;;;;;;;24.81;88.25;101083.63;4884638;29;20053;-83
2023/09/14 08:23:16;;;;;;;22.23;15.30;;;;;;;24.90;88.13;101086.22;4882420;29;20049;-83
2023/09/14 08:25:47;;;;;;;24.92;16.23;;;;;;;24.98;87.25;101091.97;4883490;29;20408;-83
2023/09/14 08:28:20;;;;;;;23.67;16.85;;;;;;;24.93;88.38;101085.47;4882478;29;20400;-83
2023/09/14 08:30:49;;;;;;;25.50;16.75;;;;;;;25.03;88.97;101089.66;4883627;29;20057;-82
2023/09/14 08:33:17;;;;;;;22.75;16.23;;;;;;;25.11;87.42;101099.03;4883582;29;20052;-82
2023/09/14 08:35:48;;;;;;;25.30;16.73;;;;;;;25.09;89.39;101098.59;4882405;29;20057;-82
2023/09/14 08:38:16;;;;;;;24.45;17.08;;;;;;;25.32;87.51;101087.47;4883444;29;20070;-82
2023/09/14 08:40:54;;;;;;;25.23;17.38;;;;;;;25.45;87.52;101092.91;4883470;29;20061;-83
2023/09/14 08:43:24;;;;;;;27.88;18.90;;;;;;;25.47;86.72;101087.75;4883654;29;20053;-82
2023/09/14 08:45:53;;;;;;;28.85;19.98;;;;;;;25.45;87.40;101081.69;4883568;29;20072;-83
2023/09/14 08:48:26;;;;;;;26.60;17.27;;;;;;;25.57;86.32;101089.16;4883723;29;20056;-82
2023/09/14 08:50:56;;;;;;;26.95;18.30;;;;;;;25.66;86.90;101084.13;4883815;29;20064;-82
2023/09/14 08:53:24;;;;;;;29.02;19.75;;;;;;;25.65;86.81;101090.13;4883644;29;20056;-83
2023/09/14 08:55:53;;;;;;;28.25;19.48;;;;;;;25.68;86.47;101083.75;4883323;29;20060;-82
2023/09/14 08:58:25;;;;;;;27.10;17.08;;;;;;;25.89;83.96;101086.13;4882936;29;20045;-83
2023/09/14 09:00:55;;;;;;;25.48;17.60;;;;;;;26.00;82.99;101089.13;4883832;29;20068;-82
2023/09/14 09:03:23;;;;;;;29.48;20.08;;;;;;;26.16;86.15;101091.81;4883981;29;20056;-83
2023/09/14 09:05:52;;;;;;;28.20;20.38;;;;;;;26.19;86.21;101081.81;4883661;29;20056;-83
2023/09/14 09:08:24;;;;;;;28.77;21.38;;;;;;;26.14;86.80;101078.16;4884003;29;20056;-82
2023/09/14 09:10:52;;;;;;;29.65;17.85;;;;;;;26.35;82.58;101082.53;4881992;29;20052;-82
2023/09/14 09:13:22;;;;;;;27.70;19.70;;;;;;;26.40;84.11;101081.38;4881098;29;20060;-83
2023/09/14 09:15:50;;;;;;;26.25;19.50;;;;;;;26.51;84.87;101073.13;4881112;29;20409;-82
2023/09/14 09:18:18;;;;;;;25.77;16.20;;;;;;;26.67;81.93;101081.34;4880925;29;20049;-83
2023/09/14 09:20:47;;;;;;;26.50;18.77;;;;;;;26.68;82.57;101077.34;4881142;29;20057;-83
2023/09/14 09:23:20;;;;;;;27.17;20.23;;;;;;;26.70;81.85;101072.19;4880026;29;20052;-83
2023/09/14 09:25:52;;;;;;;28.27;17.90;;;;;;;26.79;80.15;101083.94;4881040;29;20053;-84
2023/09/14 09:28:32;;;;;;;21.50;17.42;;;;;;;26.92;79.53;101069.69;4880020;29;20057;-83
2023/09/14 09:31:02;;;;;;;31.88;20.10;;;;;;;26.99;80.49;101072.59;4881092;29;20049;-83
2023/09/14 09:33:37;;;;;;;29.52;20.67;;;;;;;26.89;80.45;101070.44;4878921;29;20060;-83
2023/09/14 09:36:18;;;;;;;26.50;18.33;;;;;;;27.08;81.21;101064.69;4879974;29;20493;-83
2023/09/14 09:38:49;;;;;;;27.35;20.10;;;;;;;27.17;79.89;101063.59;4880095;29;20714;-83
2023/09/14 09:41:17;;;;;;;28.30;18.67;;;;;;;27.15;78.16;101066.78;4880281;29;20428;-83
2023/09/14 09:43:49;;;;;;;26.17;18.83;;;;;;;27.18;78.01;101066.00;4880270;29;20072;-83
2023/09/14 09:46:18;;;;;;;26.90;19.45;;;;;;;27.02;77.66;101060.59;4879840;29;20060;-81
2023/09/14 09:48:47;;;;;;;27.50;18.48;;;;;;;27.03;78.93;101047.38;4879728;29;20053;-83
2023/09/14 09:51:21;;;;;;;32.42;21.75;;;;;;;27.08;79.68;101039.41;4879723;29;20099;-83
2023/09/14 09:54:04;;;;;;;30.85;20.15;;;;;;;27.30;78.47;101045.28;4878588;29;20057;-83
2023/09/14 09:56:34;;;;;;;25.35;17.98;;;;;;;27.31;77.28;101055.31;4879632;29;20061;-80
2023/09/14 09:59:09;;;;;;;28.60;18.15;;;;;;;27.49;76.12;101049.06;4879760;29;20057;-82
2023/09/14 10:01:39;;;;;;;23.90;18.23;;;;;;;27.63;76.05;101035.16;4879696;29;20080;-83
2023/09/14 10:04:14;;;;;;;24.75;17.92;;;;;;;27.67;74.45;101046.47;4879870;29;20045;-83
2023/09/14 10:06:52;;;;;;;23.00;17.20;;;;;;;27.80;74.49;101041.34;4879613;29;20041;-83
2023/09/14 10:09:21;;;;;;;24.00;18.00;;;;;;;27.83;73.48;101026.53;4880049;29;20123;-83
2023/09/14 10:11:51;;;;;;;23.08;16.70;;;;;;;28.07;73.30;101015.88;4880250;29;20045;-83
2023/09/14 10:14:24;;;;;;;25.48;18.83;;;;;;;28.17;72.87;101011.50;4863453;29;20060;-82
2023/09/14 10:16:55;;;;;;;25.38;17.67;;;;;;;28.25;72.56;101023.66;4880034;29;20049;-82
2023/09/14 10:19:25;;;;;;;26.50;17.88;;;;;;;28.04;72.84;101019.44;4880189;29;20053;-82
2023/09/14 10:21:56;;;;;;;26.25;18.50;;;;;;;27.96;73.56;101014.97;4879023;29;20053;-83
2023/09/14 10:24:27;;;;;;;29.17;19.88;;;;;;;27.94;73.94;101014.56;4880005;29;20045;-83
2023/09/14 10:26:57;;;;;;;26.30;18.73;;;;;;;28.10;72.26;101006.63;4880021;29;20053;-82
2023/09/14 10:29:28;;;;;;;30.05;19.50;;;;;;;28.10;71.67;101006.63;4880006;29;20045;-83
2023/09/14 10:31:57;;;;;;;24.10;17.77;;;;;;;28.40;70.81;100997.19;4880462;29;20053;-83
2023/09/14 10:34:29;;;;;;;25.65;17.42;;;;;;;28.54;70.12;101004.13;4880114;29;20076;-82
2023/09/14 10:36:59;;;;;;;27.77;19.50;;;;;;;28.67;69.64;101001.75;4879980;29;20056;-82
2023/09/14 10:39:28;;;;;;;27.40;17.80;;;;;;;28.56;68.19;101007.34;4880151;29;20049;-81
2023/09/14 10:41:57;;;;;;;24.77;17.15;;;;;;;28.40;69.04;101002.81;4879790;29;20064;-80
2023/09/14 10:44:27;;;;;;;22.88;17.05;;;;;;;28.52;68.24;100998.06;4878869;29;20410;-81
2023/09/14 10:47:00;;;;;;;25.98;17.67;;;;;;;28.76;68.42;100992.94;4878836;29;20404;-82
2023/09/14 10:49:36;;;;;;;21.05;15.45;;;;;;;28.91;67.90;100997.44;4877629;29;20408;-82
2023/09/14 10:52:05;;;;;;;23.67;16.10;;;;;;;28.94;66.81;100996.63;4878928;29;20701;-81
2023/09/14 10:54:35;;;;;;;22.67;16.02;;;;;;;28.95;67.41;101003.91;4878776;29;20053;-82
2023/09/14 10:57:14;;;;;;;22.75;17.13;;;;;;;28.49;68.82;100993.22;4878974;29;20061;-81
2023/09/14 10:59:52;;;;;;;24.15;16.13;;;;;;;28.20;68.96;100988.19;4878748;29;20056;-81
2023/09/14 11:02:39;;;;;;;21.48;15.98;;;;;;;28.02;71.54;100993.72;4878641;29;20072;-81
2023/09/14 11:05:23;;;;;;;20.67;15.00;;;;;;;27.83;72.29;100992.78;4877626;29;20069;-82
2023/09/14 11:07:59;;;;;;;23.20;16.38;;;;;;;27.58;72.69;100998.19;4878168;29;20064;-82
2023/09/14 11:10:28;;;;;;;19.50;13.63;;;;;;;27.53;72.87;101002.16;4878910;29;20079;-82
2023/09/14 11:13:18;;;;;;;14.77;11.02;;;;;;;27.29;69.97;101007.13;4878579;29;20068;-82
2023/09/14 11:15:54;;;;;;;14.82;8.45;;;;;;;27.07;70.68;101009.69;4878656;29;20075;-81
2023/09/14 11:18:36;;;;;;;9.18;6.90;;;;;;;26.93;70.04;101006.75;4878751;29;20076;-83
2023/09/14 11:21:32;;;;;;;6.82;6.18;;;;;;;26.60;70.60;101011.91;4878987;29;20067;-83
2023/09/14 11:24:04;;;;;;;10.90;7.85;;;;;;;26.11;74.83;100999.56;4878944;29;20049;-82
2023/09/14 11:26:38;;;;;;;8.00;6.97;;;;;;;25.89;78.61;100993.63;4878960;29;20049;-83
2023/09/14 11:29:08;;;;;;;10.00;7.25;;;;;;;25.84;80.88;101003.16;4878748;29;20049;-82
2023/09/14 11:31:40;;;;;;;14.75;9.40;;;;;;;25.86;85.13;101002.78;4878907;29;20048;-83
2023/09/14 11:34:32;;;;;;;23.50;11.95;;;;;;;24.87;98.45;101193.28;4878243;29;20064;-81
2023/09/14 11:37:11;;;;;;;11.63;6.45;;;;;;;23.51;94.74;101070.00;4878396;29;20068;-77
2023/09/14 11:39:43;;;;;;;13.60;7.05;;;;;;;23.09;99.32;100998.66;4878753;29;20053;-78
2023/09/14 11:42:15;;;;;;;;;;;;;;;22.33;100.00;100990.84;4877748;29;20064;-78
2023/09/14 11:44:53;;;;;;;11.13;6.93;;;;;;;22.39;100.00;100986.66;4878774;29;19959;-76
2023/09/14 11:47:29;;;;;;;11.35;7.40;;;;;;;22.76;100.00;100994.94;4878803;29;20049;-77
2023/09/14 11:50:05;;;;;;;15.43;10.18;;;;;;;23.07;100.00;101001.78;4861781;29;20053;-76
2023/09/14 11:52:36;;;;;;;13.40;8.15;;;;;;;23.00;100.00;101009.97;4878936;29;20044;-78
2023/09/14 11:55:06;;;;;;;8.15;6.75;;;;;;;22.76;100.00;101017.25;4860689;29;20064;-77
2023/09/14 11:57:35;;;;;;;8.38;5.38;;;;;;;22.37;100.00;101022.41;4877600;29;20046;-79
2023/09/14 12:00:05;;;;;;;5.32;4.60;;;;;;;22.25;100.00;101015.69;4861372;29;20049;-78
2023/09/14 12:02:34;;;;;;;3.80;3.40;;;;;;;22.13;97.82;101015.69;4878052;29;20422;-77
2023/09/14 12:05:05;;;;;;;6.22;3.75;;;;;;;22.33;98.04;101013.16;4878453;29;20060;-78
2023/09/14 12:07:33;;;;;;;4.30;3.63;;;;;;;22.53;98.24;101012.19;4877787;29;20064;-78
2023/09/14 12:10:01;;;;;;;3.58;3.28;;;;;;;22.71;97.61;101011.09;4877988;29;20044;-78
2023/09/14 12:12:30;;;;;;;5.13;3.13;;;;;;;22.75;100.00;101012.84;4877858;29;20057;-78
2023/09/14 12:15:00;;;;;;;5.55;3.25;;;;;;;22.84;100.00;101009.09;4877906;29;20049;-78
2023/09/14 12:17:30;;;;;;;3.58;2.88;;;;;;;23.24;98.82;100988.69;4876815;29;20057;-78
2023/09/14 12:20:01;;;;;;;5.03;3.78;;;;;;;23.53;98.99;100986.69;4878220;29;20045;-78
2023/09/14 12:22:31;;;;;;;7.00;3.80;;;;;;;23.66;100.00;100981.81;4878049;29;20049;-79
2023/09/14 12:25:03;;;;;;;4.47;3.72;;;;;;;23.55;99.54;100992.72;4877320;29;20048;-79
2023/09/14 12:27:34;;;;;;;6.15;3.45;;;;;;;23.51;98.92;100986.22;4877743;29;20053;-79
2023/09/14 12:30:05;;;;;;;4.32;3.30;;;;;;;23.72;100.00;100988.78;4878801;29;20053;-79
2023/09/14 12:32:35;;;;;;;3.58;3.28;;;;;;;24.07;100.00;100983.59;4878372;29;20048;-79
2023/09/14 12:35:05;;;;;;;5.57;3.80;;;;;;;24.29;100.00;100973.72;4877424;29;20048;-79
2023/09/14 12:37:33;;;;;;;6.43;4.00;;;;;;;24.23;100.00;100975.19;4877293;29;20052;-79
2023/09/14 12:40:10;;;;;;;5.32;4.07;;;;;;;24.49;100.00;100966.19;4877442;29;20058;-78
2023/09/14 12:42:43;;;;;;;5.20;3.60;;;;;;;24.72;100.00;100973.84;4877610;29;20075;-79
2023/09/14 12:45:17;;;;;;;4.35;3.70;;;;;;;25.08;96.85;100973.78;4877870;29;20049;-79
2023/09/14 12:47:47;;;;;;;4.15;3.75;;;;;;;25.39;93.63;100969.16;4863884;29;20075;-79
2023/09/14 12:50:15;;;;;;;4.20;3.60;;;;;;;25.52;90.57;100978.19;4881578;29;20063;-78
2023/09/14 12:52:49;;;;;;;4.00;3.60;;;;;;;25.31;95.10;100982.22;4873765;29;20056;-80
2023/09/14 12:55:18;;;;;;;3.97;3.58;;;;;;;25.19;95.35;100982.38;4881808;29;20072;-79
2023/09/14 12:57:48;;;;;;;4.45;3.72;;;;;;;25.22;94.19;100976.84;4881587;29;20056;-79
2023/09/14 13:00:23;;;;;;;4.28;3.72;;;;;;;25.18;92.79;100973.16;4881803;29;20056;-79
2023/09/14 13:02:52;;;;;;;4.32;3.88;;;;;;;25.42;91.80;100985.19;4881864;29;20064;-80
2023/09/14 13:05:23;;;;;;;6.30;5.40;;;;;;;25.49;96.86;100985.34;4880593;29;20493;-80
2023/09/14 13:07:54;;;;;;;6.88;5.82;;;;;;;25.26;99.54;100981.72;4880596;29;20049;-80
2023/09/14 13:10:25;;;;;;;8.38;6.55;;;;;;;25.35;100.00;100974.69;4880686;29;20053;-80
2023/09/14 13:13:05;;;;;;;8.13;6.40;;;;;;;25.35;100.00;100976.66;4880241;29;20041;-80
2023/09/14 13:15:36;;;;;;;8.98;7.13;;;;;;;25.41;100.00;100980.78;4879650;29;20408;-80
2023/09/14 13:18:07;;;;;;;9.82;7.50;;;;;;;25.57;100.00;100972.28;4880052;29;20096;-80
2023/09/14 13:20:37;;;;;;;12.38;8.30;;;;;;;25.75;99.79;100972.59;4879219;29;20060;-80
2023/09/14 13:23:10;;;;;;;11.88;9.27;;;;;;;25.80;99.87;100973.47;4878971;29;20056;-80
2023/09/14 13:25:41;;;;;;;9.70;8.20;;;;;;;25.85;97.20;100967.53;4879788;29;20099;-81
2023/09/14 13:28:11;;;;;;;13.13;9.05;;;;;;;25.88;97.87;100969.59;4879439;29;20056;-80
2023/09/14 13:30:40;;;;;;;11.68;9.20;;;;;;;26.20;96.61;100955.22;4879533;29;20071;-80
2023/09/14 13:33:09;;;;;;;13.00;9.75;;;;;;;26.35;94.25;100959.09;4880056;29;20049;-80
2023/09/14 13:35:38;;;;;;;13.13;10.15;;;;;;;26.63;92.88;100962.63;4880007;29;20071;-81
2023/09/14 13:38:07;;;;;;;18.60;10.95;;;;;;;26.95;88.37;100951.00;4879922;29;20107;-81
2023/09/14 13:40:36;;;;;;;14.35;11.15;;;;;;;27.24;93.26;100946.47;4880584;29;20049;-80
2023/09/14 13:43:07;;;;;;;16.08;11.77;;;;;;;27.51;90.29;100945.50;4880435;29;20049;-81
2023/09/14 13:45:35;;;;;;;15.32;11.43;;;;;;;27.79;86.45;100938.53;4880327;29;20056;-81
2023/09/14 13:48:04;;;;;;;15.45;10.95;;;;;;;27.40;82.14;100942.59;4880529;29;20056;-81
2023/09/14 13:50:33;;;;;;;16.70;12.05;;;;;;;27.24;83.89;100940.06;4880632;29;20049;-80
2023/09/14 13:53:02;;;;;;;16.25;12.13;;;;;;;27.10;89.69;100930.31;4878114;29;20041;-81
2023/09/14 13:55:30;;;;;;;15.00;11.15;;;;;;;27.17;89.95;100923.16;4869016;29;20049;-80
2023/09/14 13:57:58;;;;;;;16.55;12.30;;;;;;;27.37;89.60;100920.91;4861365;29;20042;-81
2023/09/14 14:00:27;;;;;;;13.05;11.15;;;;;;;27.45;85.81;100927.38;4873436;29;20059;-81
2023/09/14 14:03:09;;;;;;;16.95;11.23;;;;;;;27.42;83.72;100917.72;4873288;29;20048;-81
2023/09/14 14:05:39;;;;;;;15.90;11.82;;;;;;;27.58;86.74;100922.31;4883368;29;20049;-81
2023/09/14 14:08:08;;;;;;;14.38;11.80;;;;;;;27.74;83.62;100910.78;4861958;29;20060;-80
2023/09/14 14:10:39;;;;;;;12.60;11.05;;;;;;;27.77;81.07;100918.44;4875940;29;20060;-81
2023/09/14 14:13:08;;;;;;;14.15;11.52;;;;;;;27.86;79.63;100918.88;4880767;29;20045;-81
2023/09/14 14:15:36;;;;;;;13.23;10.70;;;;;;;27.87;80.67;100909.25;4879365;29;20060;-80
2023/09/14 14:18:05;;;;;;;16.80;10.85;;;;;;;27.79;81.08;100913.22;4879017;29;20496;-80
2023/09/14 14:20:35;;;;;;;12.02;10.43;;;;;;;27.84;81.14;100914.84;4879342;29;20048;-79
2023/09/14 14:23:05;;;;;;;17.00;10.00;;;;;;;27.75;77.95;100918.00;4869812;29;20053;-80
2023/09/14 14:25:34;;;;;;;12.95;11.00;;;;;;;27.64;75.83;100923.56;4879651;29;20045;-80
2023/09/14 14:28:03;;;;;;;11.73;9.50;;;;;;;27.47;77.79;100913.78;4880302;29;20041;-81
2023/09/14 14:30:32;;;;;;;11.93;9.57;;;;;;;27.62;77.35;100931.59;4879335;29;20049;-79
2023/09/14 14:33:00;;;;;;;12.52;10.02;;;;;;;27.71;76.88;100929.22;4857480;29;20045;-80
2023/09/14 14:35:28;;;;;;;13.40;10.80;;;;;;;27.74;76.00;100930.44;4879166;29;20171;-79
2023/09/14 14:37:57;;;;;;;11.73;10.20;;;;;;;27.69;79.47;100930.81;4879143;29;20040;-79
2023/09/14 14:40:26;;;;;;;14.48;10.38;;;;;;;27.66;76.92;100931.59;4879227;29;20053;-78
2023/09/14 14:42:57;;;;;;;13.93;10.80;;;;;;;27.49;78.15;100931.03;4878667;29;20053;-78
2023/09/14 14:45:26;;;;;;;15.35;10.82;;;;;;;27.20;78.79;100927.97;4860615;29;20045;-78
2023/09/14 14:47:54;;;;;;;14.98;11.73;;;;;;;27.20;79.91;100925.16;4872788;29;20076;-79
2023/09/14 14:50:23;;;;;;;16.48;11.75;;;;;;;27.28;81.61;100926.03;4860299;29;20060;-79
2023/09/14 14:52:52;;;;;;;14.55;11.43;;;;;;;27.14;77.92;100929.53;4861766;29;20056;-76
2023/09/14 14:55:21;;;;;;;14.88;11.77;;;;;;;27.13;79.51;100927.91;4853711;29;20064;-83
2023/09/14 14:57:50;;;;;;;14.10;11.63;;;;;;;27.11;80.29;100922.66;4860081;29;20046;-85
2023/09/14 15:00:19;;;;;;;13.50;10.85;;;;;;;27.23;78.93;100927.22;4868761;29;20068;-84
2023/09/14 15:02:47;;;;;;;12.85;11.48;;;;;;;27.15;76.42;100928.31;4866136;29;20052;-87
2023/09/14 15:05:16;;;;;;;13.40;11.55;;;;;;;27.13;80.60;100911.06;4860621;29;20045;-86
2023/09/14 15:07:45;;;;;;;15.05;12.45;;;;;;;27.08;80.29;100915.03;4859269;29;20076;-87
2023/09/14 15:10:14;;;;;;;14.07;11.52;;;;;;;27.02;80.25;100911.75;4872006;29;20053;-86
2023/09/14 15:12:42;;;;;;;14.95;12.23;;;;;;;26.93;80.74;100911.28;4866550;29;20048;-89
2023/09/14 15:15:11;;;;;;;13.57;11.80;;;;;;;26.82;81.03;100908.31;4832236;29;20072;-84
2023/09/14 15:17:40;;;;;;;18.13;12.10;;;;;;;26.90;81.15;100909.19;4860457;29;20068;-83
2023/09/14 15:20:09;;;;;;;14.68;11.98;;;;;;;26.99;80.71;100897.69;4860601;29;20061;-82
2023/09/14 15:22:38;;;;;;;14.18;11.13;;;;;;;26.95;79.84;100894.84;4860397;29;20076;-84
2023/09/14 15:25:06;;;;;;;13.55;11.30;;;;;;;26.97;79.48;100900.88;4863939;29;20386;-84
2023/09/14 15:27:35;;;;;;;13.57;11.38;;;;;;;26.83;80.97;100893.06;4860290;29;20045;-83
2023/09/14 15:30:05;;;;;;;15.35;11.70;;;;;;;26.82;83.28;100878.25;4860169;29;20041;-84
2023/09/14 15:32:33;;;;;;;16.20;12.70;;;;;;;26.78;84.82;100891.44;4859593;29;20049;-81
2023/09/14 15:35:02;;;;;;;14.40;11.45;;;;;;;26.76;82.32;100882.59;4866903;29;20095;-89
2023/09/14 15:37:30;;;;;;;17.30;12.13;;;;;;;26.82;85.66;100880.22;4845781;29;20053;-81
2023/09/14 15:40:27;;;;;;;16.13;11.25;;;;;;;26.77;85.02;100883.38;4880914;29;20056;-72
2023/09/14 15:42:58;;;;;;;15.10;12.27;;;;;;;26.77;85.87;100872.16;4870361;29;20049;-76
2023/09/14 15:45:26;;;;;;;14.07;11.82;;;;;;;26.72;86.16;100884.53;4859489;29;20056;-83
2023/09/14 15:47:56;;;;;;;15.27;11.68;;;;;;;26.84;85.27;100880.66;4858993;29;20076;-72
2023/09/14 15:50:24;;;;;;;14.68;11.43;;;;;;;26.91;82.76;100888.34;4870409;29;20053;-75
2023/09/14 15:52:52;;;;;;;13.38;10.60;;;;;;;26.89;81.97;100885.13;4878446;29;20063;-77
2023/09/14 15:55:21;;;;;;;11.70;10.18;;;;;;;26.84;80.48;100889.88;4869037;29;20049;-78
2023/09/14 15:57:56;;;;;;;14.00;10.38;;;;;;;26.76;78.33;100887.38;4876870;29;20049;-77
2023/09/14 16:00:25;;;;;;;12.82;9.95;;;;;;;26.73;77.27;100886.16;4868581;29;20065;-75
2023/09/14 16:02:54;;;;;;;11.45;9.63;;;;;;;26.71;75.81;100888.56;4871378;29;20041;-75
2023/09/14 16:05:22;;;;;;;14.38;10.32;;;;;;;26.73;76.32;100883.34;4866266;29;20048;-76
2023/09/14 16:08:09;;;;;;;12.32;9.18;;;;;;;26.78;77.19;100883.00;4860037;29;20058;-75
2023/09/14 16:10:39;;;;;;;9.50;8.50;;;;;;;26.63;74.85;100896.06;4859904;29;20049;-77
2023/09/14 16:13:10;;;;;;;11.20;8.20;;;;;;;26.70;76.03;100898.16;4860242;29;20072;-76
2023/09/14 16:15:41;;;;;;;13.23;9.38;;;;;;;26.66;76.89;100894.50;4860242;29;20050;-77
2023/09/14 16:18:10;;;;;;;11.55;9.10;;;;;;;26.58;76.63;100892.81;4859880;29;20096;-75
2023/09/14 16:20:41;;;;;;;10.63;8.32;;;;;;;26.58;77.57;100888.00;4861570;29;20057;-75
2023/09/14 16:23:09;;;;;;;10.10;8.15;;;;;;;26.66;76.70;100880.47;4869079;29;20567;-74
2023/09/14 16:25:38;;;;;;;9.07;7.80;;;;;;;26.67;76.54;100891.31;4863803;29;20068;-76
2023/09/14 16:28:13;;;;;;;9.20;8.30;;;;;;;26.70;74.81;100886.94;4863983;29;20050;-76
2023/09/14 16:30:41;;;;;;;9.68;8.65;;;;;;;26.71;75.08;100891.34;4871991;29;20053;-76
2023/09/14 16:33:10;;;;;;;9.63;7.70;;;;;;;26.67;74.34;100891.31;4882789;29;20048;-77
2023/09/14 16:35:41;;;;;;;9.20;8.05;;;;;;;26.63;74.30;100898.88;4882696;29;20045;-77